sensor_id;sensor_type;location;lat;lon;timestamp;pressure;altitude;pressure_sealevel;temperature;humidity
55466;BME280;41329;41.594;23.810;2022-09-27T00:00:38;94573.72;;;18.86;63.43
55466;BME280;41329;41.594;23.810;2022-09-27T00:03:06;94557.34;;;18.85;63.37
55466;BME280;41329;41.594;23.810;2022-09-27T00:05:31;94508.22;;;18.52;63.54
55466;BME280;41329;41.594;23.810;2022-09-27T00:07:57;94566.44;;;18.89;63.53
55466;BME280;41329;41.594;23.810;2022-09-27T00:10:22;94551.28;;;18.86;63.45
55466;BME280;41329;41.594;23.810;2022-09-27T00:12:48;94544.56;;;18.84;63.72
55466;BME280;41329;41.594;23.810;2022-09-27T00:15:14;94522.06;;;18.71;63.76
55466;BME280;41329;41.594;23.810;2022-09-27T00:17:40;94514.59;;;18.68;63.79
55466;BME280;41329;41.594;23.810;2022-09-27T00:20:06;94535.91;;;18.78;63.79
55466;BME280;41329;41.594;23.810;2022-09-27T00:22:33;94527.16;;;18.76;63.77
55466;BME280;41329;41.594;23.810;2022-09-27T00:24:58;94530.66;;;18.80;63.83
55466;BME280;41329;41.594;23.810;2022-09-27T00:27:25;94487.13;;;18.63;63.70
55466;BME280;41329;41.594;23.810;2022-09-27T00:29:51;94508.69;;;18.79;63.83
55466;BME280;41329;41.594;23.810;2022-09-27T00:32:16;94518.22;;;18.81;63.79
55466;BME280;41329;41.594;23.810;2022-09-27T00:34:42;94522.13;;;18.84;63.75
55466;BME280;41329;41.594;23.810;2022-09-27T00:37:09;94511.38;;;18.82;63.82
55466;BME280;41329;41.594;23.810;2022-09-27T00:39:35;94511.13;;;18.77;63.78
55466;BME280;41329;41.594;23.810;2022-09-27T00:42:03;94517.28;;;18.72;63.78
55466;BME280;41329;41.594;23.810;2022-09-27T00:47:22;94526.47;;;18.72;64.04
55466;BME280;41329;41.594;23.810;2022-09-27T00:52:46;94524.00;;;18.46;64.96
55466;BME280;41329;41.594;23.810;2022-09-27T00:55:19;94518.66;;;18.51;64.92
55466;BME280;41329;41.594;23.810;2022-09-27T00:57:49;94507.91;;;18.50;64.85
55466;BME280;41329;41.594;23.810;2022-09-27T01:00:15;94507.78;;;18.53;64.88
55466;BME280;41329;41.594;23.810;2022-09-27T01:02:48;94491.19;;;18.46;64.82
55466;BME280;41329;41.594;23.810;2022-09-27T01:05:16;94486.25;;;18.50;65.02
55466;BME280;41329;41.594;23.810;2022-09-27T01:07:44;94494.56;;;18.54;65.01
55466;BME280;41329;41.594;23.810;2022-09-27T01:10:10;94485.38;;;18.53;65.01
55466;BME280;41329;41.594;23.810;2022-09-27T01:18:29;94472.91;;;18.42;64.68
55466;BME280;41329;41.594;23.810;2022-09-27T01:27:20;94444.03;;;18.29;65.08
55466;BME280;41329;41.594;23.810;2022-09-27T01:32:06;94464.31;;;18.33;65.46
55466;BME280;41329;41.594;23.810;2022-09-27T01:34:43;94459.97;;;18.32;65.60
55466;BME280;41329;41.594;23.810;2022-09-27T01:42:59;94454.00;;;18.30;65.58
55466;BME280;41329;41.594;23.810;2022-09-27T01:45:33;94459.59;;;18.30;65.58
55466;BME280;41329;41.594;23.810;2022-09-27T01:48:03;94446.31;;;18.18;65.68
55466;BME280;41329;41.594;23.810;2022-09-27T01:50:40;94470.97;;;18.23;65.73
55466;BME280;41329;41.594;23.810;2022-09-27T01:55:37;94446.31;;;18.18;65.76
55466;BME280;41329;41.594;23.810;2022-09-27T01:58:12;94464.41;;;18.29;65.81
55466;BME280;41329;41.594;23.810;2022-09-27T02:00:39;94460.16;;;18.25;65.75
55466;BME280;41329;41.594;23.810;2022-09-27T02:03:18;94470.00;;;18.29;65.74
55466;BME280;41329;41.594;23.810;2022-09-27T02:06:14;94451.56;;;18.32;65.94
55466;BME280;41329;41.594;23.810;2022-09-27T02:08:59;94444.72;;;18.33;65.94
55466;BME280;41329;41.594;23.810;2022-09-27T02:11:27;94415.19;;;18.16;65.93
55466;BME280;41329;41.594;23.810;2022-09-27T02:13:59;94428.91;;;18.26;65.90
55466;BME280;41329;41.594;23.810;2022-09-27T02:16:50;94438.53;;;18.25;66.10
55466;BME280;41329;41.594;23.810;2022-09-27T02:27:21;94398.69;;;18.05;66.05
55466;BME280;41329;41.594;23.810;2022-09-27T02:30:05;94395.53;;;18.03;66.04
55466;BME280;41329;41.594;23.810;2022-09-27T02:32:32;94410.44;;;18.00;66.02
55466;BME280;41329;41.594;23.810;2022-09-27T02:35:01;94420.69;;;17.91;66.27
55466;BME280;41329;41.594;23.810;2022-09-27T02:37:29;94398.31;;;17.91;66.38
55466;BME280;41329;41.594;23.810;2022-09-27T02:39:56;94396.91;;;17.83;66.54
55466;BME280;41329;41.594;23.810;2022-09-27T02:42:21;94396.84;;;17.70;66.85
55466;BME280;41329;41.594;23.810;2022-09-27T02:44:47;94397.97;;;17.72;67.00
55466;BME280;41329;41.594;23.810;2022-09-27T02:55:02;94390.66;;;17.91;66.65
55466;BME280;41329;41.594;23.810;2022-09-27T03:00:38;94397.06;;;17.92;66.57
55466;BME280;41329;41.594;23.810;2022-09-27T03:03:17;94410.44;;;18.00;66.09
55466;BME280;41329;41.594;23.810;2022-09-27T03:05:53;94380.09;;;17.99;66.11
55466;BME280;41329;41.594;23.810;2022-09-27T03:08:21;94376.84;;;18.00;66.26
55466;BME280;41329;41.594;23.810;2022-09-27T03:10:46;94390.38;;;18.02;66.11
55466;BME280;41329;41.594;23.810;2022-09-27T03:13:12;94384.00;;;18.01;66.00
55466;BME280;41329;41.594;23.810;2022-09-27T03:15:38;94379.97;;;18.02;65.95
55466;BME280;41329;41.594;23.810;2022-09-27T03:18:03;94367.09;;;18.05;65.97
55466;BME280;41329;41.594;23.810;2022-09-27T03:20:29;94358.03;;;18.01;65.91
55466;BME280;41329;41.594;23.810;2022-09-27T03:22:55;94365.28;;;17.98;65.74
55466;BME280;41329;41.594;23.810;2022-09-27T03:25:21;94372.13;;;17.97;65.90
55466;BME280;41329;41.594;23.810;2022-09-27T03:27:47;94364.16;;;17.96;65.96
55466;BME280;41329;41.594;23.810;2022-09-27T03:30:13;94361.81;;;17.94;66.00
55466;BME280;41329;41.594;23.810;2022-09-27T03:32:45;94377.72;;;17.97;65.98
55466;BME280;41329;41.594;23.810;2022-09-27T03:35:11;94379.41;;;17.95;66.14
55466;BME280;41329;41.594;23.810;2022-09-27T03:37:38;94369.06;;;17.92;66.40
55466;BME280;41329;41.594;23.810;2022-09-27T03:40:06;94346.53;;;17.83;66.38
55466;BME280;41329;41.594;23.810;2022-09-27T03:42:32;94350.59;;;17.82;66.50
55466;BME280;41329;41.594;23.810;2022-09-27T03:44:57;94365.47;;;17.91;66.56
55466;BME280;41329;41.594;23.810;2022-09-27T03:47:23;94362.66;;;17.78;66.56
55466;BME280;41329;41.594;23.810;2022-09-27T03:49:48;94348.28;;;17.76;66.63
55466;BME280;41329;41.594;23.810;2022-09-27T03:52:14;94335.91;;;17.77;66.85
55466;BME280;41329;41.594;23.810;2022-09-27T03:54:41;94365.94;;;17.90;67.01
55466;BME280;41329;41.594;23.810;2022-09-27T03:57:07;94372.75;;;17.88;66.80
55466;BME280;41329;41.594;23.810;2022-09-27T03:59:32;94365.03;;;17.92;66.92
55466;BME280;41329;41.594;23.810;2022-09-27T04:01:58;94357.88;;;17.92;66.71
55466;BME280;41329;41.594;23.810;2022-09-27T04:04:23;94364.28;;;17.92;66.75
55466;BME280;41329;41.594;23.810;2022-09-27T04:06:49;94372.75;;;17.88;66.59
55466;BME280;41329;41.594;23.810;2022-09-27T04:09:14;94371.88;;;17.92;66.72
55466;BME280;41329;41.594;23.810;2022-09-27T04:11:40;94363.47;;;17.92;66.74
55466;BME280;41329;41.594;23.810;2022-09-27T04:14:05;94359.13;;;17.91;66.83
55466;BME280;41329;41.594;23.810;2022-09-27T04:16:33;94353.84;;;17.92;66.82
55466;BME280;41329;41.594;23.810;2022-09-27T04:18:58;94349.59;;;17.88;66.71
55466;BME280;41329;41.594;23.810;2022-09-27T04:21:25;94360.34;;;17.90;66.55
55466;BME280;41329;41.594;23.810;2022-09-27T04:23:51;94340.16;;;17.82;66.80
55466;BME280;41329;41.594;23.810;2022-09-27T04:26:16;94365.84;;;17.93;66.84
55466;BME280;41329;41.594;23.810;2022-09-27T04:28:42;94371.09;;;17.91;66.85
55466;BME280;41329;41.594;23.810;2022-09-27T04:31:07;94370.38;;;17.87;66.66
55466;BME280;41329;41.594;23.810;2022-09-27T04:33:32;94376.38;;;17.73;66.93
55466;BME280;41329;41.594;23.810;2022-09-27T04:35:58;94389.81;;;17.78;67.04
55466;BME280;41329;41.594;23.810;2022-09-27T04:38:58;94356.25;;;17.78;66.94
55466;BME280;41329;41.594;23.810;2022-09-27T04:41:24;94354.69;;;17.77;67.11
55466;BME280;41329;41.594;23.810;2022-09-27T04:43:53;94361.16;;;17.74;67.28
55466;BME280;41329;41.594;23.810;2022-09-27T04:46:19;94344.03;;;17.72;67.44
55466;BME280;41329;41.594;23.810;2022-09-27T04:48:48;94352.31;;;17.75;67.72
55466;BME280;41329;41.594;23.810;2022-09-27T04:51:15;94341.50;;;17.77;67.33
55466;BME280;41329;41.594;23.810;2022-09-27T04:53:42;94316.06;;;17.72;67.08
55466;BME280;41329;41.594;23.810;2022-09-27T04:56:08;94321.22;;;17.73;67.08
55466;BME280;41329;41.594;23.810;2022-09-27T04:58:33;94335.00;;;17.80;67.05
55466;BME280;41329;41.594;23.810;2022-09-27T05:01:00;94329.78;;;17.66;67.53
55466;BME280;41329;41.594;23.810;2022-09-27T05:03:26;94338.28;;;17.63;67.43
55466;BME280;41329;41.594;23.810;2022-09-27T05:05:52;94347.28;;;17.54;68.09
55466;BME280;41329;41.594;23.810;2022-09-27T05:08:18;94343.66;;;17.41;68.47
55466;BME280;41329;41.594;23.810;2022-09-27T05:10:45;94336.97;;;17.51;68.72
55466;BME280;41329;41.594;23.810;2022-09-27T05:13:11;94329.66;;;17.57;68.32
55466;BME280;41329;41.594;23.810;2022-09-27T05:15:37;94338.03;;;17.57;68.29
55466;BME280;41329;41.594;23.810;2022-09-27T05:18:04;94356.38;;;17.58;68.16
55466;BME280;41329;41.594;23.810;2022-09-27T05:20:31;94355.63;;;17.58;68.17
55466;BME280;41329;41.594;23.810;2022-09-27T05:22:56;94352.81;;;17.58;68.27
55466;BME280;41329;41.594;23.810;2022-09-27T05:25:22;94349.56;;;17.59;68.42
55466;BME280;41329;41.594;23.810;2022-09-27T05:27:49;94343.97;;;17.59;68.45
55466;BME280;41329;41.594;23.810;2022-09-27T05:30:14;94335.41;;;17.66;68.20
55466;BME280;41329;41.594;23.810;2022-09-27T05:32:43;94338.97;;;17.67;68.09
55466;BME280;41329;41.594;23.810;2022-09-27T05:35:10;94320.56;;;17.53;68.39
55466;BME280;41329;41.594;23.810;2022-09-27T05:37:36;94339.28;;;17.56;68.65
55466;BME280;41329;41.594;23.810;2022-09-27T05:40:03;94320.75;;;17.46;69.12
55466;BME280;41329;41.594;23.810;2022-09-27T05:42:28;94331.91;;;17.62;69.24
55466;BME280;41329;41.594;23.810;2022-09-27T05:44:54;94328.22;;;17.65;69.22
55466;BME280;41329;41.594;23.810;2022-09-27T05:47:19;94319.25;;;17.58;69.29
55466;BME280;41329;41.594;23.810;2022-09-27T05:49:45;94343.78;;;17.66;69.19
55466;BME280;41329;41.594;23.810;2022-09-27T05:52:10;94350.25;;;17.63;69.59
55466;BME280;41329;41.594;23.810;2022-09-27T05:54:35;94327.81;;;17.51;69.83
55466;BME280;41329;41.594;23.810;2022-09-27T05:57:01;94345.09;;;17.62;69.95
55466;BME280;41329;41.594;23.810;2022-09-27T05:59:27;94340.69;;;17.48;70.32
55466;BME280;41329;41.594;23.810;2022-09-27T06:01:53;94349.47;;;17.63;70.48
55466;BME280;41329;41.594;23.810;2022-09-27T06:04:20;94335.13;;;17.61;70.75
55466;BME280;41329;41.594;23.810;2022-09-27T06:06:46;94350.31;;;17.76;70.62
55466;BME280;41329;41.594;23.810;2022-09-27T06:09:13;94342.41;;;17.87;70.34
55466;BME280;41329;41.594;23.810;2022-09-27T06:11:39;94343.00;;;17.95;70.44
55466;BME280;41329;41.594;23.810;2022-09-27T06:14:05;94340.34;;;18.04;70.25
55466;BME280;41329;41.594;23.810;2022-09-27T06:16:30;94338.13;;;18.11;70.63
55466;BME280;41329;41.594;23.810;2022-09-27T06:18:56;94320.09;;;18.12;70.12
55466;BME280;41329;41.594;23.810;2022-09-27T06:21:22;94335.28;;;18.27;69.69
55466;BME280;41329;41.594;23.810;2022-09-27T06:23:48;94334.44;;;18.14;69.36
55466;BME280;41329;41.594;23.810;2022-09-27T06:26:14;94347.91;;;18.19;68.95
55466;BME280;41329;41.594;23.810;2022-09-27T06:28:40;94347.78;;;18.23;68.72
55466;BME280;41329;41.594;23.810;2022-09-27T06:31:06;94353.84;;;18.21;68.86
55466;BME280;41329;41.594;23.810;2022-09-27T06:33:35;94362.16;;;18.25;69.00
55466;BME280;41329;41.594;23.810;2022-09-27T06:36:02;94363.59;;;18.29;68.92
55466;BME280;41329;41.594;23.810;2022-09-27T06:38:28;94365.91;;;18.34;68.81
55466;BME280;41329;41.594;23.810;2022-09-27T06:40:54;94354.38;;;18.45;68.55
55466;BME280;41329;41.594;23.810;2022-09-27T06:43:22;94357.41;;;18.50;68.47
55466;BME280;41329;41.594;23.810;2022-09-27T06:45:48;94354.94;;;18.52;68.42
55466;BME280;41329;41.594;23.810;2022-09-27T06:48:14;94358.44;;;18.56;68.32
55466;BME280;41329;41.594;23.810;2022-09-27T06:50:43;94356.28;;;18.48;68.45
55466;BME280;41329;41.594;23.810;2022-09-27T06:53:10;94313.81;;;18.37;69.08
55466;BME280;41329;41.594;23.810;2022-09-27T06:55:37;94324.34;;;18.45;68.27
55466;BME280;41329;41.594;23.810;2022-09-27T06:58:03;94339.78;;;18.37;67.89
55466;BME280;41329;41.594;23.810;2022-09-27T07:01:07;94336.47;;;18.55;66.46
55466;BME280;41329;41.594;23.810;2022-09-27T07:03:33;94338.16;;;18.52;66.31
55466;BME280;41329;41.594;23.810;2022-09-27T07:06:03;94343.53;;;18.59;64.89
55466;BME280;41329;41.594;23.810;2022-09-27T07:08:29;94343.66;;;18.81;65.03
55466;BME280;41329;41.594;23.810;2022-09-27T07:10:59;94327.06;;;18.86;64.40
55466;BME280;41329;41.594;23.810;2022-09-27T07:13:26;94352.06;;;19.06;63.51
55466;BME280;41329;41.594;23.810;2022-09-27T07:15:57;94357.34;;;19.04;63.17
55466;BME280;41329;41.594;23.810;2022-09-27T07:18:23;94351.28;;;19.05;62.66
55466;BME280;41329;41.594;23.810;2022-09-27T07:20:48;94329.31;;;19.04;62.99
55466;BME280;41329;41.594;23.810;2022-09-27T07:23:15;94345.78;;;19.14;62.53
55466;BME280;41329;41.594;23.810;2022-09-27T07:25:41;94352.06;;;19.18;62.67
55466;BME280;41329;41.594;23.810;2022-09-27T07:28:16;94362.84;;;19.32;62.39
55466;BME280;41329;41.594;23.810;2022-09-27T07:30:42;94347.66;;;19.42;62.17
55466;BME280;41329;41.594;23.810;2022-09-27T07:33:08;94353.75;;;19.41;61.93
55466;BME280;41329;41.594;23.810;2022-09-27T07:35:39;94360.56;;;19.52;61.68
55466;BME280;41329;41.594;23.810;2022-09-27T07:38:05;94363.03;;;19.50;61.32
55466;BME280;41329;41.594;23.810;2022-09-27T07:40:35;94340.94;;;19.40;61.39
55466;BME280;41329;41.594;23.810;2022-09-27T07:43:00;94351.34;;;19.64;61.32
55466;BME280;41329;41.594;23.810;2022-09-27T07:45:27;94346.34;;;19.81;61.47
55466;BME280;41329;41.594;23.810;2022-09-27T07:47:52;94356.09;;;19.89;61.04
55466;BME280;41329;41.594;23.810;2022-09-27T07:50:18;94333.75;;;19.85;60.63
55466;BME280;41329;41.594;23.810;2022-09-27T07:52:46;94337.63;;;20.00;60.56
55466;BME280;41329;41.594;23.810;2022-09-27T07:55:13;94342.78;;;20.14;59.65
55466;BME280;41329;41.594;23.810;2022-09-27T07:57:39;94335.97;;;20.24;59.83
55466;BME280;41329;41.594;23.810;2022-09-27T08:00:07;94335.44;;;20.17;59.05
55466;BME280;41329;41.594;23.810;2022-09-27T08:02:33;94346.16;;;20.31;59.41
55466;BME280;41329;41.594;23.810;2022-09-27T08:04:59;94341.84;;;20.39;59.01
55466;BME280;41329;41.594;23.810;2022-09-27T08:07:25;94339.94;;;20.36;58.65
55466;BME280;41329;41.594;23.810;2022-09-27T08:09:51;94332.91;;;20.31;58.76
55466;BME280;41329;41.594;23.810;2022-09-27T08:12:16;94314.34;;;20.34;58.57
55466;BME280;41329;41.594;23.810;2022-09-27T08:14:42;94329.56;;;20.45;58.46
55466;BME280;41329;41.594;23.810;2022-09-27T08:17:10;94326.41;;;20.43;58.28
55466;BME280;41329;41.594;23.810;2022-09-27T08:19:36;94308.97;;;20.27;58.39
55466;BME280;41329;41.594;23.810;2022-09-27T08:22:01;94319.09;;;20.46;58.24
55466;BME280;41329;41.594;23.810;2022-09-27T08:24:27;94307.31;;;20.60;58.95
55466;BME280;41329;41.594;23.810;2022-09-27T08:26:53;94317.38;;;20.79;58.00
55466;BME280;41329;41.594;23.810;2022-09-27T08:29:18;94327.91;;;20.87;57.96
55466;BME280;41329;41.594;23.810;2022-09-27T08:31:44;94312.75;;;20.85;56.88
55466;BME280;41329;41.594;23.810;2022-09-27T08:34:09;94334.84;;;20.95;57.14
55466;BME280;41329;41.594;23.810;2022-09-27T08:36:35;94332.91;;;21.14;57.50
55466;BME280;41329;41.594;23.810;2022-09-27T08:39:02;94318.69;;;21.17;56.85
55466;BME280;41329;41.594;23.810;2022-09-27T08:49:48;94313.78;;;21.57;55.70
55466;BME280;41329;41.594;23.810;2022-09-27T08:52:24;94307.06;;;21.64;55.05
55466;BME280;41329;41.594;23.810;2022-09-27T08:54:52;94301.59;;;21.69;55.09
55466;BME280;41329;41.594;23.810;2022-09-27T08:57:20;94248.56;;;21.50;54.96
55466;BME280;41329;41.594;23.810;2022-09-27T09:00:02;94284.44;;;21.85;54.56
55466;BME280;41329;41.594;23.810;2022-09-27T09:02:28;94286.78;;;21.87;53.97
55466;BME280;41329;41.594;23.810;2022-09-27T09:05:07;94278.94;;;21.64;54.60
55466;BME280;41329;41.594;23.810;2022-09-27T09:07:55;94290.53;;;21.84;55.60
55466;BME280;41329;41.594;23.810;2022-09-27T09:16:51;94284.84;;;22.47;55.10
55466;BME280;41329;41.594;23.810;2022-09-27T09:30:03;94276.31;;;22.83;52.16
55466;BME280;41329;41.594;23.810;2022-09-27T09:35:22;94243.47;;;22.62;52.48
55466;BME280;41329;41.594;23.810;2022-09-27T09:37:53;94264.22;;;22.92;52.78
55466;BME280;41329;41.594;23.810;2022-09-27T09:40:45;94254.22;;;23.14;53.28
55466;BME280;41329;41.594;23.810;2022-09-27T09:43:22;94250.56;;;23.32;52.91
55466;BME280;41329;41.594;23.810;2022-09-27T09:46:11;94248.22;;;23.54;51.09
55466;BME280;41329;41.594;23.810;2022-09-27T09:48:48;94232.34;;;23.80;51.80
55466;BME280;41329;41.594;23.810;2022-09-27T09:51:19;94238.53;;;23.93;49.83
55466;BME280;41329;41.594;23.810;2022-09-27T09:56:28;94241.94;;;23.73;49.47
55466;BME280;41329;41.594;23.810;2022-09-27T09:58:57;94225.16;;;23.55;49.28
55466;BME280;41329;41.594;23.810;2022-09-27T10:01:33;94239.69;;;23.39;50.67
55466;BME280;41329;41.594;23.810;2022-09-27T10:04:00;94240.28;;;23.20;50.97
55466;BME280;41329;41.594;23.810;2022-09-27T10:06:27;94227.69;;;23.30;50.96
55466;BME280;41329;41.594;23.810;2022-09-27T10:08:58;94224.41;;;23.22;50.52
55466;BME280;41329;41.594;23.810;2022-09-27T10:11:38;94226.47;;;23.22;50.95
55466;BME280;41329;41.594;23.810;2022-09-27T10:14:11;94233.81;;;23.28;50.50
55466;BME280;41329;41.594;23.810;2022-09-27T10:16:39;94224.59;;;23.42;50.94
55466;BME280;41329;41.594;23.810;2022-09-27T10:19:07;94222.38;;;23.70;51.42
55466;BME280;41329;41.594;23.810;2022-09-27T10:21:39;94206.97;;;23.94;50.41
55466;BME280;41329;41.594;23.810;2022-09-27T10:26:37;94211.88;;;23.70;49.17
55466;BME280;41329;41.594;23.810;2022-09-27T10:31:42;94202.16;;;23.48;50.00
55466;BME280;41329;41.594;23.810;2022-09-27T10:34:32;94215.34;;;23.42;50.16
55466;BME280;41329;41.594;23.810;2022-09-27T10:37:05;94195.53;;;23.51;50.55
55466;BME280;41329;41.594;23.810;2022-09-27T10:39:32;94196.75;;;23.59;50.31
55466;BME280;41329;41.594;23.810;2022-09-27T10:41:57;94184.78;;;23.64;50.33
55466;BME280;41329;41.594;23.810;2022-09-27T10:44:30;94183.38;;;23.59;50.29
55466;BME280;41329;41.594;23.810;2022-09-27T10:47:07;94182.06;;;23.69;49.78
55466;BME280;41329;41.594;23.810;2022-09-27T10:49:39;94193.28;;;23.78;49.31
55466;BME280;41329;41.594;23.810;2022-09-27T10:52:17;94180.13;;;23.75;49.86
55466;BME280;41329;41.594;23.810;2022-09-27T10:54:58;94179.44;;;23.80;50.01
55466;BME280;41329;41.594;23.810;2022-09-27T10:57:26;94189.16;;;23.65;50.49
55466;BME280;41329;41.594;23.810;2022-09-27T11:00:02;94196.00;;;23.73;49.74
55466;BME280;41329;41.594;23.810;2022-09-27T11:02:35;94187.16;;;23.56;49.32
55466;BME280;41329;41.594;23.810;2022-09-27T11:05:36;94182.78;;;23.55;49.30
55466;BME280;41329;41.594;23.810;2022-09-27T11:10:59;94161.94;;;23.53;49.91
55466;BME280;41329;41.594;23.810;2022-09-27T11:13:25;94152.53;;;23.56;49.51
55466;BME280;41329;41.594;23.810;2022-09-27T11:18:52;94163.09;;;23.46;49.44
55466;BME280;41329;41.594;23.810;2022-09-27T11:27:30;94167.00;;;23.49;49.47
55466;BME280;41329;41.594;23.810;2022-09-27T11:30:04;94170.81;;;23.60;48.92
55466;BME280;41329;41.594;23.810;2022-09-27T11:41:06;94154.44;;;23.50;49.62
55466;BME280;41329;41.594;23.810;2022-09-27T11:44:00;94161.84;;;23.47;49.31
55466;BME280;41329;41.594;23.810;2022-09-27T11:46:35;94147.59;;;23.27;50.24
55466;BME280;41329;41.594;23.810;2022-09-27T11:54:52;94158.56;;;23.25;52.00
55466;BME280;41329;41.594;23.810;2022-09-27T11:57:26;94157.81;;;23.16;52.50
55466;BME280;41329;41.594;23.810;2022-09-27T12:05:47;94132.28;;;23.10;53.24
55466;BME280;41329;41.594;23.810;2022-09-27T12:11:09;94122.09;;;23.13;52.94
55466;BME280;41329;41.594;23.810;2022-09-27T12:13:47;94095.59;;;23.10;52.92
55466;BME280;41329;41.594;23.810;2022-09-27T12:16:15;94101.84;;;23.23;52.62
55466;BME280;41329;41.594;23.810;2022-09-27T12:18:42;94097.84;;;23.30;52.69
55466;BME280;41329;41.594;23.810;2022-09-27T12:21:10;94089.88;;;23.28;52.40
55466;BME280;41329;41.594;23.810;2022-09-27T12:23:45;94096.47;;;23.25;52.41
55466;BME280;41329;41.594;23.810;2022-09-27T12:26:16;94095.25;;;23.17;53.07
55466;BME280;41329;41.594;23.810;2022-09-27T12:31:45;94123.72;;;23.05;53.45
55466;BME280;41329;41.594;23.810;2022-09-27T12:34:21;94120.44;;;23.06;53.75
55466;BME280;41329;41.594;23.810;2022-09-27T12:36:59;94110.75;;;22.98;54.00
55466;BME280;41329;41.594;23.810;2022-09-27T12:39:42;94114.28;;;22.84;54.40
55466;BME280;41329;41.594;23.810;2022-09-27T12:44:54;94128.84;;;22.82;55.12
55466;BME280;41329;41.594;23.810;2022-09-27T12:53:04;94120.50;;;22.64;55.09
55466;BME280;41329;41.594;23.810;2022-09-27T13:12:15;94083.38;;;23.13;53.80
55466;BME280;41329;41.594;23.810;2022-09-27T13:15:12;94080.13;;;23.06;54.02
55466;BME280;41329;41.594;23.810;2022-09-27T13:20:31;94090.53;;;23.23;53.56
55466;BME280;41329;41.594;23.810;2022-09-27T13:22:58;94081.28;;;23.23;53.48
55466;BME280;41329;41.594;23.810;2022-09-27T13:25:53;94095.31;;;23.32;53.44
55466;BME280;41329;41.594;23.810;2022-09-27T13:31:06;94096.78;;;23.27;53.51
55466;BME280;41329;41.594;23.810;2022-09-27T13:33:50;94086.78;;;23.17;53.66
55466;BME280;41329;41.594;23.810;2022-09-27T13:38:56;94100.59;;;23.15;53.68
55466;BME280;41329;41.594;23.810;2022-09-27T13:47:30;94086.47;;;22.77;55.44
55466;BME280;41329;41.594;23.810;2022-09-27T13:50:15;94085.94;;;22.55;56.24
55466;BME280;41329;41.594;23.810;2022-09-27T13:52:44;94087.03;;;22.57;56.43
55466;BME280;41329;41.594;23.810;2022-09-27T13:55:47;94087.41;;;22.50;56.42
55466;BME280;41329;41.594;23.810;2022-09-27T13:58:54;94085.06;;;22.40;56.60
55466;BME280;41329;41.594;23.810;2022-09-27T14:01:32;94083.25;;;22.28;57.53
55466;BME280;41329;41.594;23.810;2022-09-27T14:04:19;94091.22;;;22.29;57.32
55466;BME280;41329;41.594;23.810;2022-09-27T14:06:50;94104.44;;;22.14;57.82
55466;BME280;41329;41.594;23.810;2022-09-27T14:09:20;94080.06;;;22.02;57.60
55466;BME280;41329;41.594;23.810;2022-09-27T14:11:52;94086.91;;;22.10;57.91
55466;BME280;41329;41.594;23.810;2022-09-27T14:14:22;94086.16;;;22.10;57.70
55466;BME280;41329;41.594;23.810;2022-09-27T14:16:49;94083.94;;;22.14;57.77
55466;BME280;41329;41.594;23.810;2022-09-27T14:19:17;94059.72;;;21.98;58.16
55466;BME280;41329;41.594;23.810;2022-09-27T14:21:44;94066.09;;;22.08;58.14
55466;BME280;41329;41.594;23.810;2022-09-27T14:27:20;94062.53;;;21.98;58.58
55466;BME280;41329;41.594;23.810;2022-09-27T14:32:24;94046.88;;;22.06;58.64
55466;BME280;41329;41.594;23.810;2022-09-27T14:35:18;94064.38;;;22.10;58.38
55466;BME280;41329;41.594;23.810;2022-09-27T14:38:07;94060.22;;;21.88;58.92
55466;BME280;41329;41.594;23.810;2022-09-27T14:40:39;94055.56;;;21.85;59.13
55466;BME280;41329;41.594;23.810;2022-09-27T14:43:14;94072.75;;;21.87;59.36
55466;BME280;41329;41.594;23.810;2022-09-27T14:45:41;94071.53;;;21.79;59.55
55466;BME280;41329;41.594;23.810;2022-09-27T14:48:29;94031.22;;;21.46;60.00
55466;BME280;41329;41.594;23.810;2022-09-27T14:51:03;94061.25;;;21.49;60.12
55466;BME280;41329;41.594;23.810;2022-09-27T14:53:32;94068.75;;;21.52;60.57
55466;BME280;41329;41.594;23.810;2022-09-27T14:56:00;94071.72;;;21.48;60.68
55466;BME280;41329;41.594;23.810;2022-09-27T14:58:27;94072.06;;;21.41;61.26
55466;BME280;41329;41.594;23.810;2022-09-27T15:00:54;94071.13;;;21.35;61.60
55466;BME280;41329;41.594;23.810;2022-09-27T15:03:29;94065.97;;;21.43;61.22
55466;BME280;41329;41.594;23.810;2022-09-27T15:05:58;94059.69;;;21.48;61.20
55466;BME280;41329;41.594;23.810;2022-09-27T15:08:28;94052.03;;;21.39;61.24
55466;BME280;41329;41.594;23.810;2022-09-27T15:11:02;94062.06;;;21.40;61.63
55466;BME280;41329;41.594;23.810;2022-09-27T15:13:31;94066.09;;;21.48;61.31
55466;BME280;41329;41.594;23.810;2022-09-27T15:15:57;94047.69;;;21.38;61.27
55466;BME280;41329;41.594;23.810;2022-09-27T15:18:43;94036.72;;;21.31;61.22
55466;BME280;41329;41.594;23.810;2022-09-27T15:21:12;94074.84;;;21.50;61.54
55466;BME280;41329;41.594;23.810;2022-09-27T15:23:40;94070.00;;;21.42;61.79
55466;BME280;41329;41.594;23.810;2022-09-27T15:26:11;94083.63;;;21.43;61.85
55466;BME280;41329;41.594;23.810;2022-09-27T15:28:42;94090.81;;;21.35;62.35
55466;BME280;41329;41.594;23.810;2022-09-27T15:31:08;94088.47;;;21.43;62.74
55466;BME280;41329;41.594;23.810;2022-09-27T15:33:33;94064.88;;;21.22;63.68
55466;BME280;41329;41.594;23.810;2022-09-27T15:36:05;94140.34;;;21.42;65.44
55466;BME280;41329;41.594;23.810;2022-09-27T15:41:11;94170.25;;;20.73;65.54
55466;BME280;41329;41.594;23.810;2022-09-27T15:43:46;94152.13;;;20.65;64.49
55466;BME280;41329;41.594;23.810;2022-09-27T15:51:45;94135.22;;;20.47;65.82
55466;BME280;41329;41.594;23.810;2022-09-27T15:54:11;94140.59;;;20.63;65.56
55466;BME280;41329;41.594;23.810;2022-09-27T15:56:39;94120.56;;;20.61;65.86
55466;BME280;41329;41.594;23.810;2022-09-27T15:59:06;94106.69;;;20.66;66.29